Time;durP1;ratioP1;P1;durP2;ratioP2;P2;SDS_P1;SDS_P2;PMS_P1;PMS_P2;Temp;Humidity;BMP_temperature;BMP_pressure;BME280_temperature;BME280_humidity;BME280_pressure;Samples;Min_cycle;Max_cycle;Signal;HPM_P1;HPM_P2
2022/05/26 00:01:20;;;;;;;10.40;6.07;;;10.30;99.90;;;;;;5033064;28;20038;-59
2022/05/26 00:03:47;;;;;;;6.68;4.50;;;10.30;99.90;;;;;;5038665;28;20021;-59
2022/05/26 00:06:15;;;;;;;9.10;3.78;;;10.30;99.90;;;;;;5037333;28;20032;-60
2022/05/26 00:08:41;;;;;;;8.02;3.60;;;10.20;99.90;;;;;;5036645;28;20104;-59
2022/05/26 00:11:17;;;;;;;6.97;3.35;;;10.20;99.90;;;;;;5036748;28;20117;-60
2022/05/26 00:13:43;;;;;;;7.90;3.10;;;10.20;99.90;;;;;;5036128;28;20028;-60
2022/05/26 00:16:10;;;;;;;8.23;2.97;;;10.10;99.90;;;;;;5032451;28;20030;-59
2022/05/26 00:18:36;;;;;;;6.50;2.97;;;10.10;99.90;;;;;;5038681;28;20037;-60
2022/05/26 00:21:02;;;;;;;7.28;3.22;;;10.10;99.90;;;;;;5036875;28;20097;-60
2022/05/26 00:23:28;;;;;;;8.18;3.13;;;10.10;99.90;;;;;;5036397;28;20037;-60
2022/05/26 00:25:54;;;;;;;5.70;3.47;;;10.10;99.90;;;;;;5036621;28;20070;-59
2022/05/26 00:28:20;;;;;;;7.22;3.58;;;10.10;99.90;;;;;;5029961;28;20502;-60
2022/05/26 00:30:45;;;;;;;6.93;3.72;;;10.00;99.90;;;;;;5038416;28;20025;-60
2022/05/26 00:33:12;;;;;;;6.15;3.63;;;10.00;99.90;;;;;;5034048;28;20104;-60
2022/05/26 00:35:40;;;;;;;6.68;3.42;;;10.70;99.90;;;;;;5036328;28;20033;-60
2022/05/26 00:38:09;;;;;;;7.75;3.13;;;9.90;99.90;;;;;;5035725;28;20057;-59
2022/05/26 00:40:36;;;;;;;7.35;3.13;;;9.80;99.90;;;;;;5034792;28;20100;-59
2022/05/26 00:43:02;;;;;;;7.90;3.05;;;10.20;99.90;;;;;;5034407;28;20029;-59
2022/05/26 00:45:57;;;;;;;6.80;2.80;;;9.90;99.90;;;;;;5036399;28;20078;-59
2022/05/26 00:48:27;;;;;;;5.55;2.15;;;9.90;99.90;;;;;;5037711;28;20025;-59
2022/05/26 00:50:59;;;;;;;6.22;2.38;;;9.80;99.90;;;;;;5036152;28;20049;-60
2022/05/26 00:53:32;;;;;;;5.90;2.40;;;9.80;99.90;;;;;;5035619;28;20033;-60
2022/05/26 00:56:07;;;;;;;4.77;2.43;;;9.70;99.90;;;;;;5036088;28;20029;-59
2022/05/26 00:58:37;;;;;;;6.32;2.30;;;9.40;99.90;;;;;;5034222;28;20041;-60
2022/05/26 01:01:04;;;;;;;6.80;2.30;;;9.70;99.90;;;;;;5033205;28;20017;-60
2022/05/26 01:03:32;;;;;;;4.90;2.28;;;9.70;99.90;;;;;;5037729;28;20062;-59
2022/05/26 01:06:13;;;;;;;6.10;2.20;;;9.80;99.90;;;;;;5035289;28;20021;-60
2022/05/26 01:08:54;;;;;;;7.05;2.50;;;9.80;99.90;;;;;;5034402;28;20040;-60
2022/05/26 01:11:20;;;;;;;5.03;2.83;;;9.90;99.90;;;;;;5035798;28;20510;-60
2022/05/26 01:13:52;;;;;;;6.70;2.30;;;10.00;99.90;;;;;;5035446;28;20033;-60
2022/05/26 01:16:32;;;;;;;7.10;2.50;;;9.90;99.90;;;;;;5015807;28;20396;-60
2022/05/26 01:19:28;;;;;;;6.40;2.40;;;10.00;99.90;;;;;;5033836;28;20078;-60
2022/05/26 01:22:23;;;;;;;8.05;2.47;;;9.90;99.90;;;;;;5045110;28;20059;-60
2022/05/26 01:25:01;;;;;;;6.20;2.50;;;9.90;99.90;;;;;;5041960;28;20033;-60
2022/05/26 01:27:33;;;;;;;5.28;2.30;;;10.10;99.90;;;;;;5036497;28;20041;-60
2022/05/26 01:30:09;;;;;;;5.90;2.70;;;10.20;99.90;;;;;;5035304;28;20489;-59
2022/05/26 01:32:50;;;;;;;7.45;3.08;;;10.30;99.90;;;;;;5035190;28;20037;-59
2022/05/26 01:35:19;;;;;;;7.60;3.45;;;10.40;99.90;;;;;;5034959;28;20029;-59
2022/05/26 01:38:17;;;;;;;5.93;3.08;;;10.50;99.90;;;;;;5034540;28;20490;-60
2022/05/26 01:41:11;;;;;;;9.35;3.30;;;10.60;99.90;;;;;;5022390;28;20029;-60
2022/05/26 01:43:57;;;;;;;6.63;3.47;;;10.60;99.90;;;;;;5020144;28;20514;-59
2022/05/26 01:46:29;;;;;;;7.30;3.33;;;10.70;99.90;;;;;;5015367;28;20486;-60
2022/05/26 01:49:05;;;;;;;7.82;3.38;;;10.80;99.90;;;;;;5034330;28;20029;-59
2022/05/26 01:51:36;;;;;;;8.43;3.30;;;10.80;99.90;;;;;;5035385;28;20568;-59
2022/05/26 01:54:31;;;;;;;5.45;2.72;;;10.80;99.90;;;;;;5035179;28;20426;-59
2022/05/26 01:57:02;;;;;;;8.82;3.50;;;10.80;99.90;;;;;;5034884;28;20029;-59
2022/05/26 01:59:38;;;;;;;7.15;3.50;;;10.90;99.90;;;;;;5034716;28;20037;-60
2022/05/26 02:02:22;;;;;;;5.95;3.13;;;10.90;99.90;;;;;;5033415;28;20111;-60
2022/05/26 02:04:53;;;;;;;11.60;3.42;;;11.00;99.90;;;;;;5034237;28;20430;-59
2022/05/26 02:07:26;;;;;;;7.75;3.28;;;11.00;99.90;;;;;;5015258;28;20052;-59
2022/05/26 02:09:56;;;;;;;8.55;3.63;;;11.00;99.90;;;;;;5035137;28;20041;-60
2022/05/26 02:12:42;;;;;;;7.45;3.92;;;11.00;99.90;;;;;;5035889;28;20017;-60
2022/05/26 02:15:11;;;;;;;7.22;3.45;;;11.10;99.90;;;;;;5034761;28;20040;-60
2022/05/26 02:17:57;;;;;;;7.00;3.55;;;11.10;99.90;;;;;;5034868;28;20075;-59
2022/05/26 02:20:38;;;;;;;6.55;3.28;;;11.20;99.90;;;;;;5033030;28;20132;-59
2022/05/26 02:23:47;;;;;;;7.30;3.38;;;11.20;99.90;;;;;;5034455;28;20059;-60
2022/05/26 02:26:15;;;;;;;8.30;3.63;;;11.40;99.90;;;;;;5029107;28;20113;-60
2022/05/26 02:31:27;;;;;;;;;;;11.60;99.90;;;;;;5017679;28;20116;-60
2022/05/26 02:33:57;;;;;;;7.30;3.45;;;11.60;99.90;;;;;;5032752;28;20349;-59
2022/05/26 02:36:26;;;;;;;7.15;3.10;;;11.60;99.90;;;;;;5035860;28;20092;-60
2022/05/26 02:38:52;;;;;;;9.68;3.60;;;11.60;99.90;;;;;;5033935;28;20049;-59
2022/05/26 02:41:18;;;;;;;7.35;3.72;;;11.80;99.90;;;;;;5032841;28;20548;-60
2022/05/26 02:43:45;;;;;;;8.25;3.92;;;11.80;99.90;;;;;;5030936;28;20036;-60
2022/05/26 02:46:28;;;;;;;5.72;3.67;;;11.70;99.90;;;;;;5030809;28;20034;-59
2022/05/26 02:49:15;;;;;;;8.98;4.38;;;11.70;99.90;;;;;;5044033;28;20504;-60
2022/05/26 02:52:08;;;;;;;7.97;4.50;;;11.60;99.90;;;;;;5036017;28;20032;-59
2022/05/26 02:54:45;;;;;;;6.65;4.10;;;11.50;99.90;;;;;;5035059;28;20033;-59
2022/05/26 02:57:25;;;;;;;8.85;4.05;;;11.40;99.90;;;;;;5034329;28;20398;-60
2022/05/26 03:00:00;;;;;;;6.30;4.30;;;11.30;99.90;;;;;;5033880;28;20061;-60
2022/05/26 03:02:35;;;;;;;7.88;4.63;;;11.20;99.90;;;;;;5033666;28;20025;-59
2022/05/26 03:05:10;;;;;;;10.68;4.10;;;11.30;99.90;;;;;;5033106;28;20037;-59
2022/05/26 03:07:41;;;;;;;8.00;3.90;;;11.30;99.90;;;;;;5030909;28;20040;-59
2022/05/26 03:10:07;;;;;;;7.45;3.88;;;11.30;99.90;;;;;;5030937;28;24686;-59
2022/05/26 03:12:35;;;;;;;12.23;3.90;;;11.40;99.90;;;;;;5050668;28;20032;-60
2022/05/26 03:15:03;;;;;;;5.93;3.60;;;11.40;99.90;;;;;;5035592;28;20124;-62
2022/05/26 03:17:29;;;;;;;8.25;3.70;;;11.40;99.90;;;;;;5033534;28;20094;-61
2022/05/26 03:19:55;;;;;;;8.18;3.83;;;11.50;99.90;;;;;;5031169;28;20057;-60
2022/05/26 03:22:20;;;;;;;8.93;3.92;;;11.40;99.90;;;;;;5029897;28;20056;-60
2022/05/26 03:24:47;;;;;;;8.48;3.95;;;11.40;99.90;;;;;;5035648;28;20033;-60
2022/05/26 03:27:13;;;;;;;9.65;3.75;;;11.40;99.90;;;;;;5032989;28;20025;-60
2022/05/26 03:29:39;;;;;;;9.05;3.83;;;11.50;99.90;;;;;;5033826;28;20025;-60
2022/05/26 03:32:06;;;;;;;7.03;3.92;;;11.60;99.90;;;;;;5033469;28;20738;-60
2022/05/26 03:42:46;;;;;;;7.78;3.90;;;11.60;99.90;;;;;;5043755;28;20047;-59
2022/05/26 03:45:13;;;;;;;7.65;3.70;;;11.70;99.90;;;;;;5032295;28;20033;-60
2022/05/26 03:47:39;;;;;;;8.88;3.80;;;11.70;99.90;;;;;;5032251;28;20037;-60
2022/05/26 03:50:07;;;;;;;7.10;4.43;;;11.60;99.90;;;;;;5033887;28;20029;-59
2022/05/26 03:52:32;;;;;;;6.90;3.40;;;11.60;99.90;;;;;;5034853;28;20025;-60
2022/05/26 03:54:58;;;;;;;6.70;3.70;;;11.60;99.90;;;;;;5035656;28;20028;-60
2022/05/26 03:57:25;;;;;;;7.30;4.10;;;11.50;99.90;;;;;;5038666;28;20457;-59
2022/05/26 03:59:51;;;;;;;6.45;4.20;;;11.50;99.90;;;;;;5035343;28;20029;-59
2022/05/26 04:02:17;;;;;;;9.38;4.20;;;11.50;99.90;;;;;;5037347;28;20044;-59
2022/05/26 04:04:43;;;;;;;7.70;4.60;;;11.50;99.90;;;;;;5036334;28;20482;-60
2022/05/26 04:07:08;;;;;;;9.18;3.70;;;11.60;99.90;;;;;;5033481;28;20026;-59
2022/05/26 04:09:34;;;;;;;7.30;3.30;;;11.60;99.90;;;;;;5039396;28;20455;-59
2022/05/26 04:12:00;;;;;;;8.98;3.75;;;11.40;99.90;;;;;;5036720;28;20026;-60
2022/05/26 04:14:26;;;;;;;9.95;3.33;;;11.40;99.90;;;;;;5036755;28;20068;-60
2022/05/26 04:16:51;;;;;;;8.10;3.22;;;11.40;99.90;;;;;;5037218;28;20421;-60
2022/05/26 04:19:17;;;;;;;11.10;3.10;;;11.40;99.90;;;;;;5032427;28;20033;-60
2022/05/26 04:22:16;;;;;;;4.97;2.67;;;11.40;99.90;;;;;;5038677;28;20049;-59
2022/05/26 04:24:35;;;;;;;8.35;3.15;;;11.40;99.90;;;;;;5037780;28;20096;-59
2022/05/26 04:27:00;;;;;;;9.60;3.28;;;11.50;99.90;;;;;;5036752;28;20478;-59
2022/05/26 04:29:28;;;;;;;8.05;3.35;;;11.40;99.90;;;;;;5036479;28;20025;-60
2022/05/26 04:31:53;;;;;;;7.78;3.10;;;11.40;99.90;;;;;;5036632;28;20029;-59
2022/05/26 04:34:19;;;;;;;8.48;3.17;;;11.50;99.90;;;;;;5032562;28;20036;-60
2022/05/26 04:36:46;;;;;;;7.97;3.38;;;11.50;99.90;;;;;;5037975;28;20103;-60
2022/05/26 04:39:12;;;;;;;8.40;2.97;;;11.50;99.90;;;;;;5036504;28;20064;-59
2022/05/26 04:41:37;;;;;;;7.30;3.45;;;11.50;99.90;;;;;;5036147;28;20030;-59
2022/05/26 04:44:03;;;;;;;9.88;3.25;;;11.50;99.90;;;;;;5035898;28;20536;-60
2022/05/26 04:46:29;;;;;;;10.25;3.10;;;11.60;99.90;;;;;;5033977;28;20021;-60
2022/05/26 04:48:55;;;;;;;7.07;3.20;;;11.60;99.90;;;;;;5035366;28;20032;-60
2022/05/26 04:51:20;;;;;;;6.43;2.97;;;11.60;99.90;;;;;;5037293;28;20025;-60
2022/05/26 04:53:46;;;;;;;8.02;3.53;;;11.70;99.90;;;;;;5036073;28;20367;-60
2022/05/26 04:56:12;;;;;;;7.25;3.20;;;11.70;99.90;;;;;;5035887;28;20040;-59
2022/05/26 04:58:37;;;;;;;9.45;3.70;;;11.70;99.90;;;;;;5034178;28;20045;-60
2022/05/26 05:01:13;;;;;;;9.55;4.00;;;11.80;99.90;;;;;;5033733;28;20083;-60
2022/05/26 05:03:39;;;;;;;7.03;4.38;;;11.80;99.90;;;;;;5037768;28;20022;-60
2022/05/26 05:06:05;;;;;;;8.23;3.97;;;11.90;99.90;;;;;;5035675;28;20372;-60
2022/05/26 05:08:31;;;;;;;7.97;4.20;;;12.00;99.90;;;;;;5036199;28;20399;-60
2022/05/26 05:10:57;;;;;;;9.63;4.18;;;12.00;99.90;;;;;;5035681;28;20029;-60
2022/05/26 05:13:23;;;;;;;8.38;4.30;;;12.00;99.90;;;;;;5031967;28;20096;-59
2022/05/26 05:16:00;;;;;;;6.35;3.75;;;12.10;99.90;;;;;;5036404;28;20101;-60
2022/05/26 05:18:25;;;;;;;9.48;4.07;;;12.30;99.90;;;;;;5037613;28;20026;-60
2022/05/26 05:20:53;;;;;;;8.52;4.40;;;12.30;99.90;;;;;;5035524;28;20044;-60
2022/05/26 05:23:20;;;;;;;6.78;4.18;;;12.30;99.90;;;;;;5035580;28;20116;-60
2022/05/26 05:25:49;;;;;;;9.32;4.78;;;12.30;99.90;;;;;;5035159;28;20025;-60
2022/05/26 05:28:29;;;;;;;11.18;4.57;;;12.40;99.90;;;;;;5015261;28;20026;-60
2022/05/26 05:31:19;;;;;;;9.70;4.13;;;12.40;99.90;;;;;;5045461;28;20068;-60
2022/05/26 05:33:50;;;;;;;7.20;4.18;;;12.50;99.90;;;;;;5045170;28;20414;-59
2022/05/26 05:36:24;;;;;;;9.88;4.00;;;12.60;99.90;;;;;;5034631;28;20044;-60
2022/05/26 05:38:50;;;;;;;7.57;3.80;;;12.70;99.90;;;;;;5035296;28;20037;-60
2022/05/26 05:41:17;;;;;;;10.18;4.57;;;12.80;99.90;;;;;;5033451;28;20091;-59
2022/05/26 05:43:43;;;;;;;11.95;4.00;;;12.80;99.90;;;;;;5034405;28;20021;-60
2022/05/26 05:46:11;;;;;;;7.95;3.85;;;13.00;99.90;;;;;;5031562;28;20886;-60
2022/05/26 05:48:37;;;;;;;7.45;4.03;;;13.20;99.90;;;;;;5037474;28;20025;-60
2022/05/26 05:51:03;;;;;;;8.35;4.70;;;13.30;99.90;;;;;;5034959;28;20632;-59
2022/05/26 05:53:29;;;;;;;7.45;4.78;;;13.30;99.90;;;;;;5035253;28;20029;-60
2022/05/26 05:55:55;;;;;;;9.30;5.10;;;13.40;99.90;;;;;;5033198;28;20386;-60
2022/05/26 05:58:21;;;;;;;8.20;4.85;;;13.40;99.90;;;;;;5031006;28;20063;-60
2022/05/26 06:00:46;;;;;;;11.63;5.55;;;13.40;99.90;;;;;;5036223;28;20025;-60
2022/05/26 06:03:12;;;;;;;8.75;5.30;;;13.30;99.90;;;;;;5035432;28;20029;-61
2022/05/26 06:05:38;;;;;;;10.15;6.03;;;13.30;99.90;;;;;;5035076;28;20030;-60
2022/05/26 06:08:05;;;;;;;9.52;5.10;;;13.30;99.90;;;;;;5034765;28;20383;-60
2022/05/26 06:10:32;;;;;;;12.70;6.22;;;13.50;99.90;;;;;;5032006;28;20022;-59
2022/05/26 06:12:58;;;;;;;11.80;5.82;;;13.70;99.90;;;;;;5032877;28;20452;-59
2022/05/26 06:15:25;;;;;;;9.57;4.85;;;13.70;99.90;;;;;;5036261;28;20104;-60
2022/05/26 06:17:51;;;;;;;8.00;4.95;;;14.00;99.90;;;;;;5034643;28;20101;-60
2022/05/26 06:20:17;;;;;;;9.30;5.10;;;14.10;99.90;;;;;;5033610;28;20032;-60
2022/05/26 06:22:45;;;;;;;9.75;5.35;;;14.30;99.90;;;;;;5033726;28;20048;-60
2022/05/26 06:25:12;;;;;;;8.45;4.63;;;14.40;99.90;;;;;;5030477;28;20020;-60
2022/05/26 06:30:26;;;;;;;8.80;5.45;;;14.70;99.90;;;;;;5036125;28;20510;-60
2022/05/26 06:38:25;;;;;;;6.57;4.32;;;15.00;99.90;;;;;;5033996;28;20057;-60
2022/05/26 06:40:51;;;;;;;6.25;4.22;;;15.20;99.90;;;;;;5034076;28;20087;-60
2022/05/26 06:43:18;;;;;;;8.68;4.00;;;15.40;99.90;;;;;;5029112;28;20033;-59
2022/05/26 06:45:45;;;;;;;5.95;3.80;;;15.50;99.90;;;;;;5043498;28;20390;-60
2022/05/26 06:48:11;;;;;;;8.30;3.88;;;15.60;99.90;;;;;;5032991;28;20083;-60
2022/05/26 06:50:38;;;;;;;7.75;3.47;;;16.00;99.90;;;;;;5034373;28;20025;-59
2022/05/26 06:53:05;;;;;;;5.97;2.92;;;16.20;99.90;;;;;;5032636;28;20068;-60
2022/05/26 06:55:31;;;;;;;8.95;2.92;;;16.20;99.90;;;;;;5045201;28;20049;-61
2022/05/26 06:57:56;;;;;;;9.98;3.25;;;16.00;99.90;;;;;;5033540;28;20060;-61
2022/05/26 07:00:23;;;;;;;4.95;2.95;;;15.80;99.90;;;;;;5032675;28;20038;-60
2022/05/26 07:02:50;;;;;;;5.45;3.00;;;15.70;99.90;;;;;;5034082;28;20032;-61
2022/05/26 07:05:16;;;;;;;6.25;2.50;;;15.80;99.90;;;;;;5033517;28;20041;-61
2022/05/26 07:07:42;;;;;;;8.32;2.60;;;15.90;99.90;;;;;;5027732;28;20540;-61
2022/05/26 07:10:11;;;;;;;6.10;2.45;;;16.10;99.90;;;;;;5028887;28;20030;-60
2022/05/26 07:12:37;;;;;;;4.72;2.05;;;15.70;99.90;;;;;;5032329;28;20121;-60
2022/05/26 07:15:03;;;;;;;5.47;2.05;;;15.70;99.90;;;;;;5029315;28;20104;-61
2022/05/26 07:17:30;;;;;;;6.05;2.20;;;16.20;99.90;;;;;;5028732;28;20037;-61
2022/05/26 07:19:56;;;;;;;6.68;2.30;;;16.60;99.90;;;;;;5028416;28;20037;-61
2022/05/26 07:22:23;;;;;;;4.20;2.42;;;16.60;99.90;;;;;;5029118;28;20511;-61
2022/05/26 07:24:49;;;;;;;4.75;2.15;;;16.70;99.90;;;;;;5030160;28;20108;-60
2022/05/26 07:27:16;;;;;;;4.88;2.03;;;16.80;99.90;;;;;;5033175;28;20017;-61
2022/05/26 07:29:41;;;;;;;3.95;1.90;;;16.90;99.90;;;;;;5037739;28;20036;-61
2022/05/26 07:32:07;;;;;;;2.97;1.70;;;16.70;99.90;;;;;;5037398;28;20025;-62
2022/05/26 07:34:33;;;;;;;7.28;1.90;;;17.00;99.90;;;;;;5033956;28;20028;-62
2022/05/26 07:42:33;;;;;;;4.53;1.58;;;16.80;99.90;;;;;;5036900;28;20132;-61
2022/05/26 07:45:02;;;;;;;4.18;1.70;;;16.90;99.90;;;;;;5036147;28;20507;-61
2022/05/26 07:47:27;;;;;;;4.75;1.80;;;16.90;99.90;;;;;;5036386;28;20033;-61
2022/05/26 07:49:54;;;;;;;4.80;1.65;;;17.00;99.90;;;;;;5032935;28;20025;-62
2022/05/26 07:52:20;;;;;;;5.00;1.70;;;17.10;99.90;;;;;;5030799;28;20502;-60
2022/05/26 07:54:46;;;;;;;6.20;1.70;;;17.10;99.90;;;;;;5031902;28;20079;-61
2022/05/26 07:57:26;;;;;;;5.70;1.73;;;17.50;99.90;;;;;;5031694;28;20108;-61
2022/05/26 07:59:53;;;;;;;5.57;1.70;;;16.80;99.90;;;;;;5030505;28;20426;-60
2022/05/26 08:02:20;;;;;;;6.93;1.95;;;16.90;99.90;;;;;;5016097;28;20099;-61
2022/05/26 08:04:46;;;;;;;6.28;1.63;;;17.10;99.90;;;;;;5031040;28;20084;-61
2022/05/26 08:07:12;;;;;;;6.28;1.70;;;17.10;99.90;;;;;;5031049;28;20079;-60
2022/05/26 08:09:38;;;;;;;7.50;2.10;;;17.10;99.90;;;;;;5032810;28;20030;-61
2022/05/26 08:12:06;;;;;;;4.75;1.95;;;17.90;99.90;;;;;;5030696;28;20547;-60
2022/05/26 08:14:32;;;;;;;6.30;1.90;;;18.30;99.90;;;;;;5030679;28;20061;-60
2022/05/26 08:16:58;;;;;;;6.32;2.00;;;18.00;99.90;;;;;;5030967;28;20045;-60
2022/05/26 08:19:24;;;;;;;5.45;1.70;;;18.20;99.90;;;;;;5029527;28;20061;-59
2022/05/26 08:21:50;;;;;;;5.30;1.70;;;18.50;99.90;;;;;;5032722;28;20026;-60
2022/05/26 08:24:18;;;;;;;7.35;1.95;;;18.30;99.90;;;;;;5029746;28;20025;-60
2022/05/26 08:26:44;;;;;;;5.38;2.00;;;18.30;99.90;;;;;;5030818;28;20030;-60
2022/05/26 08:29:10;;;;;;;7.85;1.83;;;18.50;99.90;;;;;;5030963;28;20510;-60
2022/05/26 08:31:36;;;;;;;5.32;1.65;;;18.50;99.90;;;;;;5033454;28;20036;-61
2022/05/26 08:34:01;;;;;;;7.25;1.90;;;19.00;99.90;;;;;;5034582;28;20088;-62
2022/05/26 08:36:28;;;;;;;6.03;2.20;;;19.50;99.90;;;;;;5030978;28;20050;-62
2022/05/26 08:38:55;;;;;;;5.32;1.95;;;19.30;99.90;;;;;;5030447;28;20049;-60
2022/05/26 08:41:37;;;;;;;5.07;1.92;;;19.60;99.90;;;;;;5035456;28;20040;-62
2022/05/26 08:44:08;;;;;;;4.75;1.80;;;19.80;99.90;;;;;;5035433;28;20095;-60
2022/05/26 08:46:43;;;;;;;7.55;2.25;;;20.40;99.90;;;;;;5033264;28;20490;-61
2022/05/26 08:49:09;;;;;;;9.10;2.35;;;20.10;99.90;;;;;;5032852;28;20025;-61
2022/05/26 08:51:49;;;;;;;4.88;1.73;;;20.80;99.90;;;;;;5037506;28;20040;-60
2022/05/26 08:54:29;;;;;;;6.22;2.30;;;21.40;99.90;;;;;;5035321;28;20016;-61
2022/05/26 08:56:58;;;;;;;6.40;2.35;;;21.40;99.90;;;;;;5036236;28;20030;-60
2022/05/26 08:59:35;;;;;;;4.20;1.80;;;22.40;99.90;;;;;;5035860;28;20041;-61
2022/05/26 09:02:02;;;;;;;5.93;2.05;;;23.30;99.90;;;;;;5033246;28;20026;-61
2022/05/26 09:04:28;;;;;;;7.22;1.98;;;23.30;99.90;;;;;;5039794;28;20080;-61
2022/05/26 09:12:59;;;;;;;8.07;2.50;;;23.20;99.90;;;;;;5037044;28;20091;-61
2022/05/26 09:15:27;;;;;;;4.78;2.05;;;22.20;99.90;;;;;;5037279;28;20026;-61
2022/05/26 09:17:52;;;;;;;5.95;2.42;;;22.60;99.90;;;;;;5035448;28;20029;-61
2022/05/26 09:20:28;;;;;;;6.03;2.42;;;23.30;99.90;;;;;;5035197;28;20037;-61
2022/05/26 09:22:54;;;;;;;5.85;2.30;;;23.00;99.90;;;;;;5035328;28;20025;-62
2022/05/26 09:25:42;;;;;;;6.45;1.98;;;23.70;99.90;;;;;;5031425;28;20100;-62
2022/05/26 09:28:10;;;;;;;6.82;2.17;;;24.70;99.90;;;;;;5032047;28;20041;-62
2022/05/26 09:30:36;;;;;;;5.60;2.10;;;24.20;99.90;;;;;;5037610;28;20018;-61
2022/05/26 09:33:15;;;;;;;6.45;1.80;;;24.00;99.90;;;;;;5035174;28;20029;-59
2022/05/26 09:35:41;;;;;;;4.25;2.05;;;23.50;99.90;;;;;;5035728;28;20026;-62
2022/05/26 09:38:18;;;;;;;4.43;1.55;;;24.00;99.90;;;;;;5034985;28;20199;-61
2022/05/26 09:40:48;;;;;;;4.50;1.65;;;22.90;99.90;;;;;;5034229;28;20440;-61
2022/05/26 09:43:17;;;;;;;4.47;1.70;;;23.50;99.90;;;;;;5031004;28;20707;-61
2022/05/26 09:45:48;;;;;;;5.18;1.80;;;23.70;99.90;;;;;;5036956;28;20422;-62
2022/05/26 09:48:26;;;;;;;6.07;1.50;;;23.70;99.90;;;;;;5032397;28;20434;-62
2022/05/26 09:51:12;;;;;;;3.55;1.60;;;22.00;99.90;;;;;;5033830;28;20498;-62
2022/05/26 09:53:41;;;;;;;5.47;1.63;;;22.40;99.90;;;;;;5034986;28;20057;-62
2022/05/26 09:56:11;;;;;;;5.18;1.67;;;22.00;99.90;;;;;;5034743;28;20021;-62
2022/05/26 09:58:42;;;;;;;6.25;1.70;;;22.60;99.90;;;;;;5032192;28;20600;-62
2022/05/26 10:01:29;;;;;;;3.42;1.60;;;24.20;99.90;;;;;;5031341;28;20056;-61
2022/05/26 10:04:20;;;;;;;4.63;1.70;;;23.60;99.90;;;;;;5044492;28;20025;-62
2022/05/26 10:07:04;;;;;;;4.90;1.60;;;23.90;99.90;;;;;;5044322;28;20037;-62
2022/05/26 10:09:48;;;;;;;4.28;1.33;;;24.50;99.90;;;;;;5033509;28;20029;-62
2022/05/26 10:12:45;;;;;;;4.57;1.50;;;25.10;99.90;;;;;;5035071;28;20043;-62
2022/05/26 10:15:10;;;;;;;3.85;1.60;;;25.20;99.90;;;;;;5034573;28;20030;-62
2022/05/26 10:17:58;;;;;;;3.25;1.45;;;25.00;99.90;;;;;;5034164;28;20516;-62
2022/05/26 10:20:35;;;;;;;3.35;1.15;;;24.80;99.90;;;;;;5034582;28;20048;-62
2022/05/26 10:23:16;;;;;;;3.85;1.80;;;24.70;99.90;;;;;;5034461;28;20108;-62
2022/05/26 10:26:13;;;;;;;4.28;1.40;;;24.50;99.90;;;;;;5033385;28;20036;-61
2022/05/26 10:28:54;;;;;;;5.55;1.83;;;24.30;99.90;;;;;;5017457;28;20409;-61
2022/05/26 10:31:58;;;;;;;4.68;1.42;;;23.20;99.90;;;;;;5014449;28;20033;-62
2022/05/26 10:34:29;;;;;;;5.28;1.70;;;21.80;99.90;;;;;;5009784;28;20034;-62
2022/05/26 10:37:07;;;;;;;4.10;1.50;;;22.40;99.90;;;;;;5025646;28;20029;-62
2022/05/26 10:39:44;;;;;;;4.53;1.70;;;22.20;99.90;;;;;;5014055;28;20076;-62
2022/05/26 10:42:24;;;;;;;4.70;1.80;;;22.40;99.90;;;;;;5013722;28;20080;-62
2022/05/26 10:44:53;;;;;;;5.05;1.60;;;23.80;99.90;;;;;;5013437;28;20046;-62
2022/05/26 10:47:29;;;;;;;3.97;1.58;;;23.40;99.90;;;;;;5013207;28;20121;-62
2022/05/26 10:50:14;;;;;;;3.95;1.55;;;23.30;99.90;;;;;;5013625;28;20025;-62
2022/05/26 10:52:48;;;;;;;4.85;1.55;;;22.80;99.90;;;;;;5012269;28;20103;-62
2022/05/26 10:55:21;;;;;;;7.55;2.25;;;22.20;99.90;;;;;;5009423;28;20041;-61
2022/05/26 10:57:54;;;;;;;4.75;1.90;;;21.70;99.90;;;;;;5021811;28;20040;-62
2022/05/26 11:00:29;;;;;;;6.63;2.00;;;22.30;99.90;;;;;;5022839;28;20064;-62
2022/05/26 11:03:41;;;;;;;6.80;2.03;;;22.30;99.90;;;;;;5024594;28;20052;-61
2022/05/26 11:06:23;;;;;;;6.57;2.10;;;22.70;99.90;;;;;;5021492;28;20033;-62
2022/05/26 11:08:53;;;;;;;5.70;1.73;;;23.40;99.90;;;;;;5020850;28;20034;-62
2022/05/26 11:11:34;;;;;;;5.13;1.77;;;23.90;99.90;;;;;;5028859;28;20564;-61
2022/05/26 11:17:21;;;;;;;4.72;1.88;;;23.30;99.90;;;;;;5037753;28;20070;-62
2022/05/26 11:17:23;;;;;;;5.03;1.50;;;23.70;99.90;;;;;;5037674;28;20566;-61
2022/05/26 11:19:57;;;;;;;5.60;2.40;;;21.30;99.90;;;;;;5037523;28;20083;-62
2022/05/26 11:22:24;;;;;;;6.95;2.10;;;21.70;99.90;;;;;;5019216;28;20095;-62
2022/05/26 11:24:52;;;;;;;6.10;1.90;;;21.80;99.90;;;;;;5038797;28;20387;-62
2022/05/26 11:27:40;;;;;;;6.07;1.75;;;22.60;99.90;;;;;;5036659;28;20071;-62
2022/05/26 11:38:31;;;;;;;5.45;1.85;;;23.80;99.90;;;;;;5037381;28;20430;-62
2022/05/26 11:40:59;;;;;;;5.32;2.25;;;24.00;99.90;;;;;;5037398;28;20028;-62
2022/05/26 11:43:49;;;;;;;6.28;2.00;;;23.50;99.90;;;;;;5034374;28;20045;-62
2022/05/26 11:46:46;;;;;;;6.47;2.20;;;23.90;99.90;;;;;;5032402;28;20048;-62
2022/05/26 11:49:43;;;;;;;4.63;2.10;;;23.80;99.90;;;;;;5048403;28;20100;-62
2022/05/26 11:52:38;;;;;;;6.03;2.17;;;23.40;99.90;;;;;;5049086;28;20040;-62
2022/05/26 11:55:45;;;;;;;6.82;2.28;;;23.60;99.90;;;;;;5030359;28;20056;-62
2022/05/26 11:58:32;;;;;;;8.07;2.40;;;23.30;99.90;;;;;;5012188;28;20565;-62
2022/05/26 12:01:19;;;;;;;7.15;2.05;;;23.30;99.90;;;;;;5031970;28;20033;-62
2022/05/26 12:03:53;;;;;;;6.18;1.90;;;23.20;99.90;;;;;;5032489;28;20036;-62
2022/05/26 12:06:52;;;;;;;5.97;2.15;;;23.30;99.90;;;;;;5032607;28;20437;-62
2022/05/26 12:09:28;;;;;;;4.82;1.83;;;23.50;99.90;;;;;;5031742;28;20478;-62
2022/05/26 12:11:59;;;;;;;5.95;1.90;;;23.80;99.90;;;;;;5030634;28;20041;-62
2022/05/26 12:14:32;;;;;;;5.68;2.03;;;24.10;99.90;;;;;;5031740;28;20038;-62
2022/05/26 12:17:34;;;;;;;5.55;2.17;;;23.90;99.90;;;;;;5031598;28;20034;-62
2022/05/26 12:20:24;;;;;;;8.07;2.20;;;23.80;99.90;;;;;;5029819;28;20037;-62
2022/05/26 12:22:49;;;;;;;7.32;2.47;;;23.70;99.90;;;;;;5026925;28;20041;-62
2022/05/26 12:25:21;;;;;;;6.03;2.38;;;24.10;99.90;;;;;;5031372;28;20045;-62
2022/05/26 12:27:55;;;;;;;9.35;2.13;;;23.70;99.90;;;;;;5031878;28;20026;-62
2022/05/26 12:30:36;;;;;;;6.10;2.00;;;23.50;99.90;;;;;;5031187;28;20479;-62
2022/05/26 12:33:19;;;;;;;7.65;1.98;;;23.20;99.90;;;;;;5036541;28;20060;-62
2022/05/26 12:36:08;;;;;;;8.45;2.33;;;23.10;99.90;;;;;;5036525;28;20040;-62
2022/05/26 12:39:01;;;;;;;5.30;2.08;;;22.60;99.90;;;;;;5036050;28;20077;-62
2022/05/26 12:41:30;;;;;;;5.97;1.83;;;23.60;99.90;;;;;;5036312;28;20032;-62
2022/05/26 12:44:33;;;;;;;6.18;2.03;;;23.80;99.90;;;;;;5036377;28;20025;-62
2022/05/26 12:47:32;;;;;;;8.77;2.17;;;23.00;99.90;;;;;;5036204;28;20056;-62
2022/05/26 12:50:06;;;;;;;5.45;2.03;;;24.20;99.90;;;;;;5036197;28;20025;-62
2022/05/26 12:53:03;;;;;;;7.18;2.13;;;24.70;99.90;;;;;;5033650;28;20029;-62
2022/05/26 12:56:10;;;;;;;6.32;2.22;;;24.20;99.90;;;;;;5018866;28;20191;-62
2022/05/26 12:58:39;;;;;;;7.22;2.17;;;23.40;99.90;;;;;;5015189;28;20064;-62
2022/05/26 13:01:11;;;;;;;6.90;2.53;;;22.30;99.90;;;;;;5033180;28;20030;-62
2022/05/26 13:03:42;;;;;;;7.30;2.17;;;23.70;99.90;;;;;;5038353;28;20034;-62
2022/05/26 13:06:10;;;;;;;6.22;2.20;;;23.80;99.90;;;;;;5034352;28;20040;-62
2022/05/26 13:08:50;;;;;;;7.47;2.25;;;23.80;99.90;;;;;;5035458;28;20070;-62
2022/05/26 13:11:19;;;;;;;9.10;2.50;;;23.30;99.90;;;;;;5035386;28;20053;-61
2022/05/26 13:13:57;;;;;;;8.38;2.67;;;22.90;99.90;;;;;;5035030;28;20032;-61
2022/05/26 13:16:41;;;;;;;5.72;2.10;;;23.80;99.90;;;;;;5016732;28;20049;-62
2022/05/26 13:19:18;;;;;;;9.20;2.30;;;24.40;99.90;;;;;;5032705;28;20044;-62
2022/05/26 13:21:50;;;;;;;9.77;2.60;;;23.70;99.90;;;;;;5044460;28;20032;-62
2022/05/26 13:24:18;;;;;;;10.07;2.40;;;24.00;99.90;;;;;;5036135;28;20055;-62
2022/05/26 13:26:44;;;;;;;9.40;2.42;;;23.80;99.90;;;;;;5035246;28;20517;-62
2022/05/26 13:29:14;;;;;;;8.98;2.22;;;23.80;99.90;;;;;;5035755;28;20367;-62
2022/05/26 13:34:30;;;;;;;9.27;2.30;;;23.60;99.90;;;;;;5018476;28;20040;-62
2022/05/26 13:37:02;;;;;;;7.18;2.67;;;23.80;99.90;;;;;;5034796;28;20469;-62
2022/05/26 13:39:28;;;;;;;7.75;2.72;;;24.10;99.90;;;;;;5037137;28;20076;-62
2022/05/26 13:41:54;;;;;;;8.50;2.50;;;24.10;99.90;;;;;;5034825;28;20056;-62
2022/05/26 13:44:32;;;;;;;9.65;2.58;;;23.80;99.90;;;;;;5033776;28;20026;-62
2022/05/26 13:46:59;;;;;;;7.68;2.35;;;24.20;99.90;;;;;;5034814;28;20060;-62
2022/05/26 13:49:43;;;;;;;7.28;2.40;;;24.40;99.90;;;;;;5031543;28;20053;-62
2022/05/26 13:52:21;;;;;;;10.57;2.58;;;24.60;99.90;;;;;;5031410;28;20033;-62
2022/05/26 13:54:47;;;;;;;8.35;2.72;;;24.20;99.90;;;;;;5044188;28;20021;-62
2022/05/26 13:57:22;;;;;;;9.65;2.90;;;24.10;99.90;;;;;;5035309;28;20057;-62
2022/05/26 13:59:53;;;;;;;8.65;2.90;;;24.10;99.90;;;;;;5034884;28;20025;-62